Time;durP1;ratioP1;P1;durP2;ratioP2;P2;SDS_P1;SDS_P2;PMS_P1;PMS_P2;Temp;Humidity;BMP_temperature;BMP_pressure;BME280_temperature;BME280_humidity;BME280_pressure;Samples;Min_cycle;Max_cycle;Signal;HPM_P1;HPM_P2
2022/04/24 00:00:44;;;;;;;0.10;0.10;;;9.30;99.90;;;;;;5072129;28;20040;-77
2022/04/24 00:03:11;;;;;;;0.13;0.13;;;9.50;99.90;;;;;;5088650;28;20132;-78
2022/04/24 00:05:37;;;;;;;0.10;0.10;;;9.20;99.90;;;;;;5089071;28;20036;-78
2022/04/24 00:08:04;;;;;;;0.10;0.10;;;9.20;99.90;;;;;;5088706;28;20048;-80
2022/04/24 00:10:31;;;;;;;0.10;0.10;;;9.10;99.90;;;;;;5105407;28;20045;-78
2022/04/24 00:12:58;;;;;;;0.20;0.20;;;9.10;99.90;;;;;;5072237;28;20051;-79
2022/04/24 00:15:24;;;;;;;0.10;0.10;;;9.10;99.90;;;;;;5105068;28;20040;-80
2022/04/24 00:17:51;;;;;;;0.10;0.10;;;9.10;99.90;;;;;;5072273;28;20052;-78
2022/04/24 00:20:18;;;;;;;0.10;0.10;;;9.00;99.90;;;;;;5088598;28;20041;-80
2022/04/24 00:22:44;;;;;;;0.10;0.10;;;9.00;99.90;;;;;;5072471;28;20041;-80
2022/04/24 00:25:11;;;;;;;0.10;0.10;;;8.90;99.90;;;;;;5071882;28;20417;-80
2022/04/24 00:27:38;;;;;;;0.10;0.10;;;8.90;99.90;;;;;;5088963;28;20076;-82
2022/04/24 00:30:05;;;;;;;0.10;0.10;;;8.80;99.90;;;;;;5087992;28;20495;-82
2022/04/24 00:32:32;;;;;;;0.10;0.10;;;8.70;99.90;;;;;;5075683;28;20562;-82
2022/04/24 00:34:58;;;;;;;0.10;0.10;;;8.80;99.90;;;;;;5075628;28;20078;-78
2022/04/24 00:37:25;;;;;;;0.80;0.43;;;8.60;99.90;;;;;;5075601;28;20066;-80
2022/04/24 00:39:52;;;;;;;0.10;0.10;;;8.60;99.90;;;;;;5075377;28;20485;-77
2022/04/24 00:42:19;;;;;;;0.10;0.10;;;8.60;99.90;;;;;;5075291;28;20043;-79
2022/04/24 00:44:45;;;;;;;0.10;0.10;;;8.50;99.90;;;;;;5058904;28;20053;-77
2022/04/24 00:47:20;;;;;;;0.10;0.10;;;8.50;99.90;;;;;;5059090;28;20037;-78
2022/04/24 00:49:47;;;;;;;0.10;0.10;;;8.40;99.90;;;;;;5076111;28;20040;-80
2022/04/24 00:52:14;;;;;;;0.20;0.20;;;8.40;99.90;;;;;;5091823;28;20513;-80
2022/04/24 00:54:41;;;;;;;0.10;0.10;;;8.30;99.90;;;;;;5092258;28;20047;-80
2022/04/24 00:57:09;;;;;;;0.10;0.10;;;8.30;99.90;;;;;;5091674;28;20401;-79
2022/04/24 00:59:37;;;;;;;0.10;0.10;;;8.20;99.90;;;;;;5075187;28;20556;-78
2022/04/24 01:02:05;;;;;;;0.10;0.10;;;8.20;99.90;;;;;;5091537;28;20045;-81
2022/04/24 01:04:34;;;;;;;0.20;0.20;;;8.10;99.90;;;;;;5108408;28;20044;-81
2022/04/24 01:07:01;;;;;;;0.20;0.20;;;8.20;99.90;;;;;;5108891;28;20123;-78
2022/04/24 01:09:28;;;;;;;0.40;0.30;;;8.10;99.90;;;;;;5074825;28;20521;-80
2022/04/24 01:11:56;;;;;;;0.10;0.10;;;8.10;99.90;;;;;;5075045;28;20068;-78
2022/04/24 01:14:27;;;;;;;0.10;0.10;;;8.30;99.90;;;;;;5071332;28;20094;-78
2022/04/24 01:16:54;;;;;;;0.20;0.20;;;8.10;99.90;;;;;;5087884;28;20041;-78
2022/04/24 01:19:21;;;;;;;0.10;0.10;;;8.10;99.90;;;;;;5090452;28;20045;-78
2022/04/24 01:21:49;;;;;;;0.20;0.20;;;8.00;99.90;;;;;;5108353;28;20082;-78
2022/04/24 01:24:24;;;;;;;0.10;0.10;;;8.00;99.90;;;;;;5107781;28;20132;-78
2022/04/24 01:26:51;;;;;;;0.10;0.10;;;8.00;99.90;;;;;;5108172;28;20037;-81
2022/04/24 01:29:18;;;;;;;0.10;0.10;;;8.00;99.90;;;;;;5107749;28;20283;-80
2022/04/24 01:31:45;;;;;;;0.47;0.30;;;7.90;99.90;;;;;;5091201;28;20032;-80
2022/04/24 01:34:14;;;;;;;0.55;0.40;;;7.90;99.90;;;;;;5074225;28;20737;-78
2022/04/24 01:36:42;;;;;;;0.10;0.10;;;7.80;99.90;;;;;;5107909;28;20063;-81
2022/04/24 01:39:09;;;;;;;0.30;0.30;;;7.80;99.90;;;;;;5091179;28;20446;-78
2022/04/24 01:41:36;;;;;;;0.20;0.20;;;7.70;99.90;;;;;;5074590;28;20132;-80
2022/04/24 01:44:03;;;;;;;0.68;0.20;;;7.70;99.90;;;;;;5090137;28;20051;-80
2022/04/24 01:46:29;;;;;;;0.10;0.10;;;7.70;99.90;;;;;;5073857;28;20478;-78
2022/04/24 01:48:56;;;;;;;0.10;0.10;;;7.60;99.90;;;;;;5057552;28;20132;-78
2022/04/24 01:51:23;;;;;;;0.10;0.10;;;7.60;99.90;;;;;;5070615;28;20033;-77
2022/04/24 01:53:50;;;;;;;0.10;0.10;;;7.50;99.90;;;;;;5087464;28;20695;-81
2022/04/24 01:56:16;;;;;;;0.20;0.20;;;7.60;99.90;;;;;;5087061;28;20041;-80
2022/04/24 01:58:43;;;;;;;0.20;0.20;;;7.50;99.90;;;;;;5070552;28;20041;-78
2022/04/24 02:01:10;;;;;;;0.17;0.17;;;7.50;99.90;;;;;;5090894;28;20052;-80
2022/04/24 02:03:37;;;;;;;0.10;0.10;;;7.50;99.90;;;;;;5090310;28;20071;-78
2022/04/24 02:06:04;;;;;;;0.10;0.10;;;7.50;99.90;;;;;;5057243;28;20041;-78
2022/04/24 02:08:34;;;;;;;0.10;0.10;;;7.50;99.90;;;;;;5090093;28;20181;-78
2022/04/24 02:11:03;;;;;;;0.10;0.10;;;7.50;99.90;;;;;;5090212;28;20656;-80
2022/04/24 02:13:29;;;;;;;0.10;0.10;;;7.40;99.90;;;;;;5089808;28;20503;-80
2022/04/24 02:15:56;;;;;;;0.20;0.20;;;7.40;99.90;;;;;;5090499;28;20045;-78
2022/04/24 02:18:23;;;;;;;0.10;0.10;;;7.40;99.90;;;;;;5081625;28;20042;-80
2022/04/24 02:20:49;;;;;;;0.10;0.10;;;7.40;99.90;;;;;;5069445;28;20140;-77
2022/04/24 02:23:16;;;;;;;0.20;0.20;;;7.30;99.90;;;;;;5061152;28;20056;-78
2022/04/24 02:25:43;;;;;;;0.20;0.20;;;7.30;99.90;;;;;;5059427;28;20068;-78
2022/04/24 02:28:10;;;;;;;0.17;0.17;;;7.30;99.90;;;;;;5053731;28;20505;-80
2022/04/24 02:30:36;;;;;;;0.20;0.20;;;7.30;99.90;;;;;;5063472;28;20094;-78
2022/04/24 02:33:03;;;;;;;0.25;0.25;;;7.20;99.90;;;;;;5090399;28;20040;-80
2022/04/24 02:35:30;;;;;;;0.10;0.10;;;7.20;99.90;;;;;;5056658;28;20047;-80
2022/04/24 02:37:57;;;;;;;0.10;0.10;;;7.20;99.90;;;;;;5073452;28;20052;-78
2022/04/24 02:40:24;;;;;;;0.10;0.10;;;7.20;99.90;;;;;;5072836;28;20071;-78
2022/04/24 02:42:51;;;;;;;0.10;0.10;;;7.10;99.90;;;;;;5073287;28;20040;-78
2022/04/24 02:45:19;;;;;;;0.52;0.30;;;7.10;99.90;;;;;;5089828;28;20094;-80
2022/04/24 02:47:46;;;;;;;0.10;0.10;;;7.10;99.90;;;;;;5073004;28;20028;-80
2022/04/24 02:50:14;;;;;;;0.10;0.10;;;7.00;99.90;;;;;;5106476;28;20036;-80
2022/04/24 02:52:52;;;;;;;0.10;0.10;;;6.90;99.90;;;;;;5072520;28;20048;-79
2022/04/24 02:55:20;;;;;;;0.10;0.10;;;6.90;99.90;;;;;;5105429;28;20076;-78
2022/04/24 02:57:47;;;;;;;0.13;0.13;;;6.90;99.90;;;;;;5073135;28;20489;-78
2022/04/24 03:00:22;;;;;;;0.10;0.10;;;6.90;99.90;;;;;;5106513;28;20036;-80
2022/04/24 03:02:49;;;;;;;0.20;0.20;;;6.80;99.90;;;;;;5090012;28;20501;-80
2022/04/24 03:05:18;;;;;;;0.20;0.20;;;6.80;99.90;;;;;;5072929;28;20063;-80
2022/04/24 03:07:46;;;;;;;0.20;0.20;;;6.90;99.90;;;;;;5089434;28;20047;-80
2022/04/24 03:10:14;;;;;;;0.20;0.20;;;6.70;99.90;;;;;;5089495;28;20170;-78
2022/04/24 03:12:42;;;;;;;0.10;0.10;;;6.70;99.90;;;;;;5072429;28;20044;-78
2022/04/24 03:15:10;;;;;;;0.10;0.10;;;6.90;99.90;;;;;;5089494;28;20041;-78
2022/04/24 03:17:37;;;;;;;0.13;0.13;;;7.20;99.90;;;;;;5055895;28;20048;-77
2022/04/24 03:20:09;;;;;;;0.10;0.10;;;6.70;99.90;;;;;;5089513;28;20047;-78
2022/04/24 03:22:36;;;;;;;0.10;0.10;;;6.60;99.90;;;;;;5088968;28;20124;-81
2022/04/24 03:25:07;;;;;;;0.10;0.10;;;6.70;99.90;;;;;;5072966;28;20459;-80
2022/04/24 03:27:34;;;;;;;0.20;0.20;;;6.60;99.90;;;;;;5072743;28;20045;-78
2022/04/24 03:30:02;;;;;;;0.20;0.20;;;6.60;99.90;;;;;;5072869;28;20040;-78
2022/04/24 03:32:32;;;;;;;0.20;0.20;;;6.60;99.90;;;;;;5105569;28;20467;-78
2022/04/24 03:35:00;;;;;;;0.15;0.15;;;6.60;99.90;;;;;;5106057;28;20116;-78
2022/04/24 03:37:26;;;;;;;0.15;0.15;;;6.60;99.90;;;;;;5105692;28;20051;-78
2022/04/24 03:39:53;;;;;;;0.10;0.10;;;6.60;99.90;;;;;;5089278;28;20037;-78
2022/04/24 03:42:20;;;;;;;0.20;0.20;;;6.60;99.90;;;;;;5106058;28;20048;-78
2022/04/24 03:44:47;;;;;;;0.10;0.10;;;7.00;99.90;;;;;;5088438;28;20523;-80
2022/04/24 03:47:14;;;;;;;0.20;0.20;;;6.60;99.90;;;;;;5089255;28;20165;-81
2022/04/24 03:49:41;;;;;;;0.20;0.20;;;6.50;99.90;;;;;;5088823;28;20505;-78
2022/04/24 03:52:08;;;;;;;0.20;0.20;;;6.50;99.90;;;;;;5105840;28;20036;-79
2022/04/24 03:54:35;;;;;;;0.10;0.10;;;6.40;99.90;;;;;;5088521;28;20048;-81
2022/04/24 03:57:01;;;;;;;0.20;0.20;;;6.40;99.90;;;;;;5089325;28;20040;-78
2022/04/24 03:59:29;;;;;;;0.20;0.20;;;6.40;99.90;;;;;;5088672;28;20040;-81
2022/04/24 04:01:56;;;;;;;0.20;0.20;;;6.40;99.90;;;;;;5088592;28;20052;-78
2022/04/24 04:04:22;;;;;;;0.20;0.20;;;6.50;99.90;;;;;;5088480;28;20072;-78
2022/04/24 04:06:49;;;;;;;0.10;0.10;;;6.30;99.90;;;;;;5107205;28;20496;-80
2022/04/24 04:09:16;;;;;;;0.20;0.20;;;6.30;99.90;;;;;;5108991;28;20253;-78
2022/04/24 04:11:43;;;;;;;0.20;0.20;;;6.30;99.90;;;;;;5108700;28;20049;-79
2022/04/24 04:14:09;;;;;;;0.20;0.20;;;6.30;99.90;;;;;;5076047;28;20044;-79
2022/04/24 04:16:36;;;;;;;0.10;0.10;;;6.30;99.90;;;;;;5092539;28;20194;-81
2022/04/24 04:19:03;;;;;;;0.10;0.10;;;6.40;99.90;;;;;;5092339;28;20101;-80
2022/04/24 04:21:30;;;;;;;0.10;0.10;;;6.90;99.90;;;;;;5092286;28;20047;-79
2022/04/24 04:23:56;;;;;;;0.10;0.10;;;6.30;99.90;;;;;;5108649;28;20060;-78
2022/04/24 04:26:23;;;;;;;0.13;0.13;;;6.30;99.90;;;;;;5075636;28;20039;-80
2022/04/24 04:28:50;;;;;;;0.20;0.20;;;6.30;99.90;;;;;;5075709;28;20080;-78
2022/04/24 04:31:17;;;;;;;0.20;0.20;;;6.30;99.90;;;;;;5093257;28;20131;-78
2022/04/24 04:33:44;;;;;;;0.20;0.20;;;6.30;99.90;;;;;;5092235;28;20135;-78
2022/04/24 04:36:11;;;;;;;0.20;0.20;;;6.30;99.90;;;;;;5072051;28;20399;-78
2022/04/24 04:38:37;;;;;;;0.20;0.20;;;6.70;99.90;;;;;;5071762;28;20080;-81
2022/04/24 04:41:04;;;;;;;0.20;0.20;;;6.90;99.90;;;;;;5071937;28;20075;-78
2022/04/24 04:43:31;;;;;;;0.20;0.20;;;6.40;99.90;;;;;;5104690;28;20060;-79
2022/04/24 04:45:58;;;;;;;0.20;0.20;;;6.40;99.90;;;;;;5077770;28;20041;-81
2022/04/24 04:48:26;;;;;;;1.25;0.82;;;6.40;99.90;;;;;;5074864;28;20513;-79
2022/04/24 04:50:53;;;;;;;0.20;0.20;;;6.70;99.90;;;;;;5108210;28;20102;-78
2022/04/24 04:53:20;;;;;;;0.10;0.10;;;6.50;99.90;;;;;;5092132;28;20051;-78
2022/04/24 04:55:47;;;;;;;0.20;0.20;;;6.50;99.90;;;;;;5091952;28;20048;-78
2022/04/24 04:58:14;;;;;;;0.20;0.20;;;6.70;99.90;;;;;;5092227;28;20042;-80
2022/04/24 05:00:41;;;;;;;0.10;0.10;;;6.60;99.90;;;;;;5058633;28;20479;-78
2022/04/24 05:03:08;;;;;;;0.20;0.20;;;6.60;99.90;;;;;;5091835;28;20037;-81
2022/04/24 05:05:35;;;;;;;0.10;0.10;;;6.60;99.90;;;;;;5075067;28;20123;-81
2022/04/24 05:08:02;;;;;;;0.13;0.13;;;6.70;99.90;;;;;;5091727;28;20135;-78
2022/04/24 05:10:29;;;;;;;0.20;0.20;;;6.80;99.90;;;;;;5108323;28;20501;-80
2022/04/24 05:12:55;;;;;;;0.20;0.20;;;6.80;99.90;;;;;;5074880;28;20101;-78
2022/04/24 05:15:22;;;;;;;0.20;0.20;;;6.90;99.90;;;;;;5091497;28;20044;-79
2022/04/24 05:17:49;;;;;;;0.10;0.10;;;6.90;99.90;;;;;;5091588;28;20047;-79
2022/04/24 05:20:16;;;;;;;0.10;0.10;;;7.00;99.90;;;;;;5075236;28;20459;-80
2022/04/24 05:22:42;;;;;;;0.43;0.30;;;7.00;99.90;;;;;;5091400;28;20068;-80
2022/04/24 05:25:12;;;;;;;0.10;0.10;;;7.10;99.90;;;;;;5091208;28;20496;-81
2022/04/24 05:27:39;;;;;;;0.13;0.13;;;7.10;99.90;;;;;;5091259;28;20074;-78
2022/04/24 05:30:07;;;;;;;0.20;0.20;;;7.20;99.90;;;;;;5091139;28;20573;-78
2022/04/24 05:32:39;;;;;;;0.10;0.10;;;7.20;99.90;;;;;;5074902;28;20036;-81
2022/04/24 05:35:07;;;;;;;0.20;0.20;;;7.30;99.90;;;;;;5091358;28;20187;-81
2022/04/24 05:37:34;;;;;;;0.15;0.15;;;7.30;99.90;;;;;;5058251;28;20068;-81
2022/04/24 05:40:01;;;;;;;0.13;0.13;;;7.30;99.90;;;;;;5090517;28;20046;-81
2022/04/24 05:42:28;;;;;;;0.10;0.10;;;7.40;99.90;;;;;;5091148;28;20033;-79
2022/04/24 05:44:59;;;;;;;0.20;0.20;;;7.50;99.90;;;;;;5090500;28;20524;-78
2022/04/24 05:47:26;;;;;;;0.17;0.17;;;7.40;99.90;;;;;;5107518;28;20047;-81
2022/04/24 05:49:53;;;;;;;0.10;0.10;;;7.40;99.90;;;;;;5073767;28;20123;-81
2022/04/24 05:52:20;;;;;;;0.20;0.20;;;7.50;99.90;;;;;;5074120;28;20123;-81
2022/04/24 05:54:47;;;;;;;0.20;0.20;;;7.60;99.90;;;;;;5090490;28;20044;-81
2022/04/24 05:57:14;;;;;;;0.15;0.15;;;7.60;99.90;;;;;;5090950;28;20037;-81
2022/04/24 05:59:40;;;;;;;0.10;0.10;;;7.60;99.90;;;;;;5090321;28;20508;-78
2022/04/24 06:02:07;;;;;;;0.10;0.10;;;7.70;99.90;;;;;;5074188;28;20045;-81
2022/04/24 06:04:34;;;;;;;0.10;0.10;;;7.70;99.90;;;;;;5057318;28;20519;-81
2022/04/24 06:07:00;;;;;;;0.20;0.20;;;7.80;99.90;;;;;;5057221;28;20958;-79
2022/04/24 06:09:27;;;;;;;0.10;0.10;;;8.40;99.90;;;;;;5090358;28;20040;-78
2022/04/24 06:11:58;;;;;;;0.15;0.15;;;7.90;99.90;;;;;;5089812;28;20050;-78
2022/04/24 06:14:25;;;;;;;0.20;0.20;;;7.90;99.90;;;;;;5074580;28;20047;-78
2022/04/24 06:16:52;;;;;;;0.20;0.20;;;8.00;99.90;;;;;;5089899;28;20063;-78
2022/04/24 06:19:19;;;;;;;0.10;0.10;;;8.10;99.90;;;;;;5073241;28;20508;-80
2022/04/24 06:21:46;;;;;;;0.30;0.30;;;8.10;99.90;;;;;;5073083;28;20068;-80
2022/04/24 06:24:13;;;;;;;0.10;0.10;;;8.20;99.90;;;;;;5106705;28;20045;-78
2022/04/24 06:26:41;;;;;;;0.13;0.13;;;8.30;99.90;;;;;;5073262;28;20044;-80
2022/04/24 06:29:08;;;;;;;0.10;0.10;;;8.30;99.90;;;;;;5072886;28;20481;-80
2022/04/24 06:31:34;;;;;;;0.10;0.10;;;8.40;99.90;;;;;;5056651;28;20036;-79
2022/04/24 06:34:01;;;;;;;0.20;0.20;;;8.40;99.90;;;;;;5077686;28;20040;-80
2022/04/24 06:36:28;;;;;;;0.10;0.10;;;8.50;99.90;;;;;;5075827;28;20659;-81
2022/04/24 06:38:54;;;;;;;0.20;0.20;;;9.10;99.90;;;;;;5074897;28;20037;-82
2022/04/24 06:41:21;;;;;;;0.10;0.10;;;8.50;99.90;;;;;;5073451;28;20048;-80
2022/04/24 06:43:48;;;;;;;0.10;0.10;;;8.70;99.90;;;;;;5098271;28;20417;-80
2022/04/24 06:46:14;;;;;;;0.20;0.20;;;8.70;99.90;;;;;;5043707;28;20040;-81
2022/04/24 06:48:41;;;;;;;0.10;0.10;;;8.70;99.90;;;;;;5074965;28;20040;-81
2022/04/24 06:51:08;;;;;;;0.10;0.10;;;8.80;99.90;;;;;;5085449;28;20035;-81
2022/04/24 06:53:37;;;;;;;0.20;0.20;;;8.90;99.90;;;;;;5068421;28;20042;-82
2022/04/24 06:56:04;;;;;;;0.10;0.10;;;9.10;99.90;;;;;;5092246;28;20047;-80
2022/04/24 06:58:31;;;;;;;0.10;0.10;;;9.30;99.90;;;;;;5057912;28;20040;-80
2022/04/24 07:00:57;;;;;;;0.10;0.10;;;9.30;99.90;;;;;;5070744;28;20048;-80
2022/04/24 07:03:26;;;;;;;0.10;0.10;;;9.40;99.90;;;;;;5085821;28;20481;-82
2022/04/24 07:05:53;;;;;;;0.10;0.10;;;9.40;99.90;;;;;;5106031;28;20048;-82
2022/04/24 07:08:21;;;;;;;0.10;0.10;;;9.40;99.90;;;;;;5089871;28;20032;-81
2022/04/24 07:10:48;;;;;;;0.10;0.10;;;9.40;99.90;;;;;;5073106;28;20483;-82
2022/04/24 07:13:14;;;;;;;0.10;0.10;;;9.50;99.90;;;;;;5089156;28;20074;-82
2022/04/24 07:15:41;;;;;;;0.10;0.10;;;9.60;99.90;;;;;;5056481;28;20044;-83
2022/04/24 07:18:10;;;;;;;0.10;0.10;;;9.80;99.90;;;;;;5075457;28;20041;-82
2022/04/24 07:20:38;;;;;;;0.10;0.10;;;10.00;99.90;;;;;;5089784;28;20131;-82
2022/04/24 07:23:05;;;;;;;0.30;0.30;;;10.10;99.90;;;;;;5105802;28;20044;-82
2022/04/24 07:25:43;;;;;;;0.10;0.10;;;10.30;99.90;;;;;;5089715;28;20041;-84
2022/04/24 07:28:15;;;;;;;0.20;0.20;;;10.30;99.90;;;;;;5089213;28;20041;-82
2022/04/24 07:30:42;;;;;;;0.10;0.10;;;10.50;99.90;;;;;;5089481;28;20036;-80
2022/04/24 07:33:09;;;;;;;0.10;0.10;;;10.50;99.90;;;;;;5071163;28;20500;-82
2022/04/24 07:35:38;;;;;;;0.10;0.10;;;10.70;99.90;;;;;;5090617;28;20123;-80
2022/04/24 07:38:05;;;;;;;0.10;0.10;;;10.80;99.90;;;;;;5105703;28;20048;-81
2022/04/24 07:40:35;;;;;;;0.10;0.10;;;10.90;99.90;;;;;;5102034;28;20039;-82
2022/04/24 07:43:04;;;;;;;0.10;0.10;;;11.00;99.90;;;;;;5089229;28;20122;-81
2022/04/24 07:45:41;;;;;;;0.10;0.10;;;11.00;99.90;;;;;;5088007;28;20044;-82
2022/04/24 07:48:11;;;;;;;0.10;0.10;;;11.00;99.90;;;;;;5101960;28;20045;-81
2022/04/24 07:50:42;;;;;;;0.10;0.10;;;11.10;99.90;;;;;;5081665;28;20814;-80
2022/04/24 07:53:11;;;;;;;0.10;0.10;;;11.20;99.90;;;;;;5118870;28;20052;-82
2022/04/24 07:55:44;;;;;;;0.10;0.10;;;11.40;99.90;;;;;;5098232;28;20044;-80
2022/04/24 07:58:11;;;;;;;0.10;0.10;;;11.50;99.90;;;;;;5118872;28;20068;-82
2022/04/24 08:00:39;;;;;;;0.10;0.10;;;11.50;99.90;;;;;;5102202;28;20456;-81
2022/04/24 08:03:10;;;;;;;0.10;0.10;;;11.70;99.90;;;;;;5091319;28;20041;-81
2022/04/24 08:05:48;;;;;;;0.10;0.10;;;11.80;99.90;;;;;;5100794;28;20124;-82
2022/04/24 08:08:20;;;;;;;0.10;0.10;;;11.90;99.90;;;;;;5097622;28;20032;-82
2022/04/24 08:10:53;;;;;;;0.20;0.20;;;12.10;99.90;;;;;;5089313;28;20048;-82
2022/04/24 08:13:20;;;;;;;0.10;0.10;;;12.20;99.90;;;;;;5102455;28;20455;-80
2022/04/24 08:15:48;;;;;;;0.10;0.10;;;12.30;99.90;;;;;;5088082;28;20043;-79
2022/04/24 08:18:16;;;;;;;0.10;0.10;;;12.40;99.90;;;;;;5135964;28;20060;-83
2022/04/24 08:20:44;;;;;;;0.10;0.10;;;12.40;99.90;;;;;;5092416;28;20046;-83
2022/04/24 08:23:11;;;;;;;0.10;0.10;;;12.40;99.90;;;;;;5091516;28;20132;-82
2022/04/24 08:25:39;;;;;;;0.10;0.10;;;12.50;99.90;;;;;;5126031;28;20060;-83
2022/04/24 08:28:08;;;;;;;0.10;0.10;;;12.60;99.90;;;;;;5091333;28;20033;-81
2022/04/24 08:30:37;;;;;;;0.10;0.10;;;12.70;99.90;;;;;;5086427;28;20028;-82
2022/04/24 08:33:04;;;;;;;0.10;0.10;;;12.90;99.90;;;;;;5108699;28;20123;-83
2022/04/24 08:35:32;;;;;;;0.00;0.00;;;12.90;99.90;;;;;;5092203;28;20051;-80
2022/04/24 08:37:58;;;;;;;0.10;0.10;;;13.00;99.90;;;;;;5107719;28;20051;-80
2022/04/24 08:40:25;;;;;;;0.10;0.10;;;13.10;99.90;;;;;;5075087;28;20485;-80
2022/04/24 08:42:53;;;;;;;0.10;0.10;;;13.10;99.90;;;;;;5091297;28;20048;-81
2022/04/24 08:45:26;;;;;;;0.10;0.10;;;13.10;99.90;;;;;;5090060;28;20117;-82
2022/04/24 08:47:54;;;;;;;0.13;0.13;;;13.10;99.90;;;;;;5090432;28;20043;-80
2022/04/24 08:50:21;;;;;;;0.10;0.10;;;13.20;99.90;;;;;;5090678;28;20037;-80
2022/04/24 08:52:48;;;;;;;0.10;0.10;;;13.20;99.90;;;;;;5073127;28;20051;-82
2022/04/24 08:55:15;;;;;;;0.30;0.20;;;13.30;99.90;;;;;;5073205;28;20040;-80
2022/04/24 08:57:42;;;;;;;0.00;0.00;;;13.40;99.90;;;;;;5057316;28;20040;-82
2022/04/24 09:00:09;;;;;;;0.00;0.00;;;13.60;99.90;;;;;;5056212;28;20028;-82
2022/04/24 09:02:36;;;;;;;0.10;0.10;;;13.60;99.90;;;;;;5090318;28;20129;-82
2022/04/24 09:05:06;;;;;;;0.00;0.00;;;13.70;99.90;;;;;;5090210;28;20098;-82
2022/04/24 09:07:34;;;;;;;0.08;0.08;;;13.90;99.90;;;;;;5090131;28;20119;-82
2022/04/24 09:10:11;;;;;;;0.10;0.10;;;14.00;99.90;;;;;;5078675;28;20087;-81
2022/04/24 09:12:39;;;;;;;0.10;0.10;;;14.20;99.90;;;;;;5090307;28;20037;-80
2022/04/24 09:15:07;;;;;;;0.10;0.10;;;14.20;99.90;;;;;;5105127;28;20040;-82
2022/04/24 09:17:35;;;;;;;0.10;0.10;;;14.20;99.90;;;;;;5086730;28;20037;-83
2022/04/24 09:20:16;;;;;;;0.00;0.00;;;14.20;99.90;;;;;;5072947;28;20409;-82
2022/04/24 09:22:43;;;;;;;0.10;0.10;;;14.30;99.90;;;;;;5117445;28;20036;-80
2022/04/24 09:25:12;;;;;;;0.00;0.00;;;14.50;99.90;;;;;;5088308;28;20040;-82
2022/04/24 09:27:39;;;;;;;0.10;0.10;;;14.50;99.90;;;;;;5111704;28;20044;-80
2022/04/24 09:30:10;;;;;;;0.10;0.10;;;14.50;99.90;;;;;;5072385;28;20090;-80
2022/04/24 09:32:47;;;;;;;0.35;0.20;;;14.50;99.90;;;;;;5090010;28;20677;-82
2022/04/24 09:35:33;;;;;;;0.00;0.00;;;14.50;99.90;;;;;;5089508;28;20033;-80
2022/04/24 09:38:14;;;;;;;0.00;0.00;;;14.60;99.90;;;;;;5122910;28;20085;-80
2022/04/24 09:40:46;;;;;;;0.00;0.00;;;14.60;99.90;;;;;;5089184;28;20036;-82
2022/04/24 09:43:15;;;;;;;0.10;0.10;;;14.60;99.70;;;;;;5116260;28;165439;-80
2022/04/24 09:45:46;;;;;;;0.10;0.10;;;14.70;99.70;;;;;;5105561;28;20127;-82
2022/04/24 09:48:18;;;;;;;0.17;0.17;;;14.80;99.90;;;;;;5056149;28;20037;-82
2022/04/24 09:50:45;;;;;;;0.00;0.00;;;14.90;99.30;;;;;;5096039;28;20048;-80
2022/04/24 09:53:15;;;;;;;0.10;0.10;;;14.90;99.70;;;;;;5062064;28;20512;-81
2022/04/24 09:55:43;;;;;;;0.00;0.00;;;14.90;99.40;;;;;;5106890;28;20040;-81
2022/04/24 09:58:14;;;;;;;0.03;0.03;;;15.00;99.60;;;;;;5087362;28;20040;-80
2022/04/24 10:00:41;;;;;;;0.03;0.03;;;14.80;99.20;;;;;;5082979;28;20036;-80
2022/04/24 10:03:09;;;;;;;0.00;0.00;;;14.90;99.70;;;;;;5089585;28;20044;-80
2022/04/24 10:05:38;;;;;;;0.10;0.10;;;15.00;99.10;;;;;;5083871;28;20044;-81
2022/04/24 10:08:06;;;;;;;0.00;0.00;;;15.00;99.20;;;;;;5085447;28;20036;-80
2022/04/24 10:10:33;;;;;;;0.00;0.00;;;15.10;99.20;;;;;;5081010;28;20040;-81
2022/04/24 10:13:01;;;;;;;0.10;0.10;;;15.30;98.90;;;;;;5073893;28;20082;-82
2022/04/24 10:15:30;;;;;;;0.00;0.00;;;15.30;98.80;;;;;;5089240;28;20044;-80
2022/04/24 10:18:18;;;;;;;0.10;0.10;;;15.40;98.00;;;;;;5090497;28;20586;-80
2022/04/24 10:21:03;;;;;;;0.00;0.00;;;15.50;98.90;;;;;;5089937;28;20068;-80
2022/04/24 10:23:34;;;;;;;0.05;0.05;;;15.60;98.00;;;;;;5089952;28;20123;-80
2022/04/24 10:26:03;;;;;;;0.00;0.00;;;15.70;98.50;;;;;;5090155;28;20116;-82
2022/04/24 10:28:40;;;;;;;0.08;0.08;;;15.60;97.40;;;;;;5072979;28;20506;-80
2022/04/24 10:31:09;;;;;;;0.00;0.00;;;15.60;97.20;;;;;;5080077;28;20070;-82
2022/04/24 10:33:39;;;;;;;0.10;0.10;;;15.40;97.20;;;;;;5089750;28;20463;-82
2022/04/24 10:36:07;;;;;;;0.00;0.00;;;15.50;97.00;;;;;;5088869;28;20037;-80
2022/04/24 10:38:49;;;;;;;0.10;0.10;;;15.50;97.00;;;;;;5090318;28;20135;-82
2022/04/24 10:41:22;;;;;;;0.00;0.00;;;15.70;97.10;;;;;;5088972;28;20044;-82
2022/04/24 10:43:56;;;;;;;0.10;0.10;;;15.50;95.90;;;;;;5069247;28;20461;-81
2022/04/24 10:46:28;;;;;;;0.10;0.10;;;15.70;96.50;;;;;;5096391;28;20033;-82
2022/04/24 10:49:16;;;;;;;0.00;0.00;;;15.60;95.00;;;;;;5089675;28;20039;-80
2022/04/24 10:52:04;;;;;;;0.10;0.10;;;15.80;95.60;;;;;;5088541;28;20070;-80
2022/04/24 10:54:40;;;;;;;0.10;0.10;;;15.80;95.70;;;;;;5088524;28;20101;-82
2022/04/24 10:57:20;;;;;;;0.00;0.00;;;15.90;95.10;;;;;;5089607;28;20519;-80
2022/04/24 10:59:55;;;;;;;0.10;0.10;;;16.10;95.30;;;;;;5122739;28;20159;-80
2022/04/24 11:02:30;;;;;;;0.10;0.10;;;16.20;95.10;;;;;;5086109;28;20051;-80
2022/04/24 11:05:05;;;;;;;0.00;0.00;;;16.10;93.30;;;;;;5074316;28;20424;-82
2022/04/24 11:07:33;;;;;;;0.00;0.00;;;16.00;93.60;;;;;;5052646;28;20106;-81
2022/04/24 11:10:05;;;;;;;0.00;0.00;;;15.90;93.20;;;;;;5092064;28;20041;-80
2022/04/24 11:12:32;;;;;;;0.08;0.08;;;16.10;93.80;;;;;;5088839;28;20070;-81
2022/04/24 11:15:09;;;;;;;0.20;0.08;;;16.30;93.80;;;;;;5105760;28;20043;-80
2022/04/24 11:17:36;;;;;;;0.00;0.00;;;16.30;93.80;;;;;;5105806;28;20489;-82
2022/04/24 11:20:09;;;;;;;0.10;0.10;;;16.50;93.80;;;;;;5089119;28;20460;-80
2022/04/24 11:22:53;;;;;;;0.05;0.05;;;16.30;93.30;;;;;;5089075;28;20076;-79
2022/04/24 11:25:22;;;;;;;0.10;0.10;;;15.80;93.00;;;;;;5072531;28;20043;-80
2022/04/24 11:27:51;;;;;;;0.00;0.00;;;15.60;94.40;;;;;;5102968;28;20040;-81
2022/04/24 11:30:22;;;;;;;0.00;0.00;;;15.60;94.40;;;;;;5080094;28;20082;-82
2022/04/24 11:32:58;;;;;;;0.00;0.00;;;15.70;95.20;;;;;;5105857;28;20150;-81
2022/04/24 11:35:26;;;;;;;;;;;15.50;93.60;;;;;;5103043;28;20029;-82
2022/04/24 11:37:54;;;;;;;0.05;0.05;;;15.50;94.20;;;;;;5086426;28;19924;-82
2022/04/24 11:40:22;;;;;;;0.10;0.10;;;15.40;94.30;;;;;;5061434;28;20116;-80
2022/04/24 11:42:49;;;;;;;0.00;0.00;;;15.40;94.80;;;;;;5097621;28;20065;-82
2022/04/24 11:50:53;;;;;;;0.08;0.08;;;15.50;95.10;;;;;;5091109;28;20048;-79
2022/04/24 11:53:21;;;;;;;0.00;0.00;;;15.80;95.70;;;;;;5071742;28;20127;-80
2022/04/24 11:56:02;;;;;;;0.00;0.00;;;15.80;95.10;;;;;;5105507;28;20810;-82
2022/04/24 11:58:38;;;;;;;0.00;0.00;;;15.80;94.50;;;;;;5073336;28;20049;-82
2022/04/24 12:01:07;;;;;;;0.00;0.00;;;15.80;95.50;;;;;;5105445;28;20045;-80
2022/04/24 12:03:36;;;;;;;0.00;0.00;;;15.90;94.90;;;;;;5105282;28;20032;-80
2022/04/24 12:06:11;;;;;;;0.00;0.00;;;15.80;94.80;;;;;;5105092;28;20107;-80
2022/04/24 12:08:45;;;;;;;0.20;0.13;;;15.70;95.30;;;;;;5105320;28;20040;-80
2022/04/24 12:11:29;;;;;;;0.00;0.00;;;15.50;94.40;;;;;;5088808;28;20123;-80
2022/04/24 12:14:10;;;;;;;0.00;0.00;;;15.30;95.20;;;;;;5088582;28;20045;-79
2022/04/24 12:16:45;;;;;;;0.20;0.13;;;15.10;95.50;;;;;;5088831;28;20036;-81
2022/04/24 12:19:16;;;;;;;;;;;15.20;95.80;;;;;;5075449;28;20047;-79
2022/04/24 12:21:48;;;;;;;0.00;0.00;;;15.10;95.90;;;;;;5088610;28;20337;-82
2022/04/24 12:24:16;;;;;;;0.00;0.00;;;15.10;95.70;;;;;;5088237;28;20036;-80
2022/04/24 12:26:51;;;;;;;0.40;0.20;;;15.10;96.20;;;;;;5105645;28;20040;-79
2022/04/24 12:29:18;;;;;;;0.10;0.10;;;14.90;96.20;;;;;;5097625;28;20047;-81
2022/04/24 12:31:47;;;;;;;0.10;0.10;;;14.90;96.00;;;;;;5092022;28;20405;-79
2022/04/24 12:34:14;;;;;;;0.00;0.00;;;14.60;95.80;;;;;;5059507;28;20037;-80
2022/04/24 12:36:49;;;;;;;0.10;0.10;;;14.60;96.60;;;;;;5071741;28;20502;-79
2022/04/24 12:39:23;;;;;;;0.10;0.10;;;14.80;96.80;;;;;;5071461;28;20040;-81
2022/04/24 12:41:50;;;;;;;0.32;0.17;;;14.90;96.80;;;;;;5092074;28;20078;-82
2022/04/24 12:44:17;;;;;;;0.08;0.08;;;15.10;97.00;;;;;;5091633;28;20053;-81
2022/04/24 12:46:44;;;;;;;0.00;0.00;;;15.20;97.00;;;;;;5092115;28;20036;-83
2022/04/24 12:49:10;;;;;;;0.17;0.10;;;15.30;97.10;;;;;;5091730;28;20048;-83
2022/04/24 12:51:37;;;;;;;0.10;0.10;;;15.20;96.10;;;;;;5074894;28;20040;-83
2022/04/24 12:54:04;;;;;;;0.00;0.00;;;15.20;96.20;;;;;;5075784;28;20078;-82
2022/04/24 12:56:32;;;;;;;0.10;0.10;;;15.30;96.60;;;;;;5075282;28;20079;-82
2022/04/24 12:58:59;;;;;;;0.00;0.00;;;15.50;96.30;;;;;;5127200;28;20040;-80
2022/04/24 13:01:26;;;;;;;0.00;0.00;;;15.60;96.30;;;;;;5074610;28;20429;-82
2022/04/24 13:03:54;;;;;;;0.10;0.10;;;15.50;95.70;;;;;;5058293;28;20047;-81
2022/04/24 13:06:28;;;;;;;0.52;0.28;;;15.30;95.10;;;;;;5091635;28;20093;-81